createdAt,value
2018-07-30T00:00:15.023Z,0.00
2018-07-30T00:01:14.959Z,0.00
2018-07-30T00:02:14.892Z,0.00
2018-07-30T00:03:14.833Z,0.00
2018-07-30T00:04:14.781Z,0.00
2018-07-30T00:05:14.737Z,0.00
2018-07-30T00:06:14.657Z,0.00
2018-07-30T00:07:14.595Z,0.00
2018-07-30T00:08:14.521Z,0.00
2018-07-30T00:09:14.470Z,0.00
2018-07-30T00:10:14.400Z,0.00
2018-07-30T00:11:14.339Z,0.00
2018-07-30T00:12:14.276Z,0.00
2018-07-30T00:13:14.208Z,0.00
2018-07-30T00:14:14.172Z,0.00
2018-07-30T00:15:14.106Z,0.00
2018-07-30T00:16:14.036Z,0.00
2018-07-30T00:17:13.965Z,0.00
2018-07-30T00:18:13.900Z,0.00
2018-07-30T00:19:13.856Z,0.00
2018-07-30T00:20:13.781Z,0.00
2018-07-30T00:21:13.728Z,0.00
2018-07-30T00:22:13.661Z,0.00
2018-07-30T00:23:13.601Z,0.00
2018-07-30T00:24:13.548Z,0.00
2018-07-30T00:25:13.469Z,0.00
2018-07-30T00:26:13.421Z,0.00
2018-07-30T00:27:13.351Z,0.00
2018-07-30T00:28:13.291Z,0.00
2018-07-30T00:29:13.231Z,0.00
2018-07-30T00:30:13.174Z,0.00
2018-07-30T00:31:13.103Z,0.00
2018-07-30T00:32:13.052Z,0.00
2018-07-30T00:33:12.985Z,0.00
2018-07-30T00:34:12.923Z,0.00
2018-07-30T00:35:12.862Z,0.00
2018-07-30T00:36:12.791Z,0.00
2018-07-30T00:37:12.756Z,0.00
2018-07-30T00:38:12.672Z,0.00
2018-07-30T00:39:12.607Z,0.00
2018-07-30T00:40:12.553Z,0.00
2018-07-30T00:41:12.490Z,0.00
2018-07-30T00:42:12.429Z,0.00
2018-07-30T00:43:12.364Z,0.00
2018-07-30T00:44:12.308Z,0.00
2018-07-30T00:45:12.229Z,0.00
2018-07-30T00:46:12.188Z,0.00
2018-07-30T00:47:12.118Z,0.00
2018-07-30T00:48:12.052Z,0.00
2018-07-30T00:49:12.000Z,0.00
2018-07-30T00:50:11.917Z,0.00
2018-07-30T00:51:11.858Z,0.00
2018-07-30T00:52:11.801Z,0.00
2018-07-30T00:53:11.743Z,0.00
2018-07-30T00:54:11.685Z,0.00
2018-07-30T00:55:11.619Z,0.00
2018-07-30T00:56:11.558Z,0.00
2018-07-30T00:57:11.501Z,0.00
2018-07-30T00:58:11.433Z,0.00
2018-07-30T00:59:11.375Z,0.00
2018-07-30T01:00:11.295Z,0.00
2018-07-30T01:01:11.252Z,0.00
2018-07-30T01:02:11.188Z,0.00
2018-07-30T01:03:11.111Z,0.00
2018-07-30T01:04:11.073Z,0.00
2018-07-30T01:05:10.998Z,0.00
2018-07-30T01:06:10.936Z,0.00
2018-07-30T01:07:10.869Z,0.00
2018-07-30T01:08:10.809Z,0.00
2018-07-30T01:09:10.740Z,0.00
2018-07-30T01:10:10.686Z,0.00
2018-07-30T01:11:10.622Z,0.00
2018-07-30T01:12:10.569Z,0.00
2018-07-30T01:13:10.501Z,0.00
2018-07-30T01:14:10.425Z,0.00
2018-07-30T01:15:10.375Z,0.00
2018-07-30T01:16:10.303Z,0.00
2018-07-30T01:17:10.316Z,0.00
2018-07-30T01:18:10.184Z,0.00
2018-07-30T01:19:10.123Z,0.00
2018-07-30T01:20:10.047Z,0.00
2018-07-30T01:21:09.987Z,0.00
2018-07-30T01:22:09.930Z,0.00
2018-07-30T01:23:09.877Z,0.00
2018-07-30T01:24:09.796Z,0.00
2018-07-30T01:25:09.733Z,0.00
2018-07-30T01:26:09.680Z,0.00
2018-07-30T01:27:09.615Z,0.00
2018-07-30T01:28:09.553Z,0.00
2018-07-30T01:29:09.490Z,0.00
2018-07-30T01:30:09.429Z,0.00
2018-07-30T01:31:09.365Z,0.00
2018-07-30T01:32:09.306Z,0.00
2018-07-30T01:33:09.254Z,0.00
2018-07-30T01:34:09.180Z,0.00
2018-07-30T01:35:09.125Z,0.00
2018-07-30T01:36:09.066Z,0.00
2018-07-30T01:37:08.989Z,0.00
2018-07-30T01:38:08.932Z,0.00
2018-07-30T01:39:08.873Z,0.00
2018-07-30T01:40:08.813Z,0.00
2018-07-30T01:41:08.747Z,0.00
2018-07-30T01:42:08.698Z,0.00
2018-07-30T01:43:08.613Z,0.00
2018-07-30T01:44:08.564Z,0.00
2018-07-30T01:45:08.518Z,0.00
2018-07-30T01:46:08.501Z,0.00
2018-07-30T01:47:08.368Z,0.00
2018-07-30T01:48:08.300Z,0.00
2018-07-30T01:49:08.268Z,0.00
2018-07-30T01:50:08.185Z,0.00
2018-07-30T01:51:08.122Z,0.00
2018-07-30T01:52:08.065Z,0.00
2018-07-30T01:53:07.995Z,0.00
2018-07-30T01:54:07.930Z,0.00
2018-07-30T01:55:07.865Z,0.00
2018-07-30T01:56:07.807Z,0.00
2018-07-30T01:57:07.750Z,0.00
2018-07-30T01:58:07.687Z,0.00
2018-07-30T01:59:07.627Z,0.00
2018-07-30T02:00:07.549Z,0.00
2018-07-30T02:01:07.497Z,0.00
2018-07-30T02:02:07.434Z,0.00
2018-07-30T02:03:07.367Z,0.00
2018-07-30T02:04:07.309Z,0.00
2018-07-30T02:05:07.257Z,0.00
2018-07-30T02:06:07.195Z,0.00
2018-07-30T02:07:07.112Z,0.00
2018-07-30T02:08:07.053Z,0.00
2018-07-30T02:09:06.990Z,0.00
2018-07-30T02:10:06.925Z,0.00
2018-07-30T02:11:06.874Z,0.00
2018-07-30T02:12:06.815Z,0.00
2018-07-30T02:13:06.741Z,0.00
2018-07-30T02:14:06.679Z,0.00
2018-07-30T02:15:06.620Z,0.00
2018-07-30T02:16:06.542Z,0.00
2018-07-30T02:17:06.496Z,0.00
2018-07-30T02:18:06.433Z,0.00
2018-07-30T02:19:06.375Z,0.00
2018-07-30T02:20:06.303Z,0.00
2018-07-30T02:21:06.237Z,0.00
2018-07-30T02:22:06.173Z,0.00
2018-07-30T02:23:06.115Z,0.00
2018-07-30T02:24:06.039Z,0.00
2018-07-30T02:25:05.980Z,0.00
2018-07-30T02:26:05.925Z,0.00
2018-07-30T02:27:05.870Z,0.00
2018-07-30T02:28:05.817Z,0.00
2018-07-30T02:29:05.738Z,0.00
2018-07-30T02:30:05.673Z,0.00
2018-07-30T02:31:05.622Z,0.00
2018-07-30T02:32:05.552Z,0.00
2018-07-30T02:33:05.485Z,0.00
2018-07-30T02:34:05.453Z,0.00
2018-07-30T02:35:05.368Z,0.00
2018-07-30T02:36:05.309Z,0.00
2018-07-30T02:37:05.239Z,0.00
2018-07-30T02:38:05.173Z,0.00
2018-07-30T02:39:05.107Z,0.00
2018-07-30T02:40:05.056Z,0.00
2018-07-30T02:41:04.993Z,0.00
2018-07-30T02:42:04.943Z,0.00
2018-07-30T02:43:04.878Z,0.00
2018-07-30T02:44:04.810Z,0.00
2018-07-30T02:45:04.746Z,0.00
2018-07-30T02:46:04.691Z,0.00
2018-07-30T02:47:04.624Z,0.00
2018-07-30T02:48:04.562Z,0.00
2018-07-30T02:49:04.529Z,0.00
2018-07-30T02:50:04.438Z,0.00
2018-07-30T02:51:04.413Z,0.00
2018-07-30T02:52:04.312Z,0.00
2018-07-30T02:53:04.242Z,0.00
2018-07-30T02:54:04.182Z,0.00
2018-07-30T02:55:04.129Z,0.00
2018-07-30T02:56:04.086Z,0.00
2018-07-30T02:57:04.011Z,0.00
2018-07-30T02:58:03.937Z,0.00
2018-07-30T02:59:03.875Z,0.00
2018-07-30T03:00:03.808Z,0.00
2018-07-30T03:01:03.761Z,0.00
2018-07-30T03:02:03.701Z,0.00
2018-07-30T03:03:03.634Z,0.00
2018-07-30T03:04:03.560Z,0.00
2018-07-30T03:05:03.503Z,0.00
2018-07-30T03:06:03.443Z,0.00
2018-07-30T03:07:03.389Z,0.00
2018-07-30T03:08:03.319Z,0.00
2018-07-30T03:09:03.248Z,0.00
2018-07-30T03:10:03.187Z,0.00
2018-07-30T03:11:03.124Z,0.00
2018-07-30T03:12:03.064Z,0.00
2018-07-30T03:13:03.011Z,0.00
2018-07-30T03:14:02.937Z,0.00
2018-07-30T03:15:02.882Z,0.00
2018-07-30T03:16:02.827Z,0.00
2018-07-30T03:17:02.753Z,0.00
2018-07-30T03:18:02.699Z,0.00
2018-07-30T03:19:02.639Z,0.00
2018-07-30T03:20:02.569Z,0.00
2018-07-30T03:21:02.510Z,0.00
2018-07-30T03:22:02.440Z,0.00
2018-07-30T03:23:02.382Z,0.00
2018-07-30T03:24:02.313Z,0.00
2018-07-30T03:25:02.256Z,0.00
2018-07-30T03:26:02.215Z,0.00
2018-07-30T03:27:02.148Z,0.00
2018-07-30T03:28:02.079Z,0.00
2018-07-30T03:29:02.004Z,0.00
2018-07-30T03:30:01.976Z,0.00
2018-07-30T03:31:01.880Z,0.00
2018-07-30T03:32:01.833Z,0.00
2018-07-30T03:33:01.764Z,0.00
2018-07-30T03:34:01.700Z,0.00
2018-07-30T03:35:01.639Z,0.00
2018-07-30T03:36:01.582Z,0.00
2018-07-30T03:37:01.522Z,0.00
2018-07-30T03:38:01.458Z,0.00
2018-07-30T03:39:01.396Z,0.00
2018-07-30T03:40:01.330Z,0.00
2018-07-30T03:41:01.268Z,0.00
2018-07-30T03:42:01.199Z,0.00
2018-07-30T03:43:01.142Z,0.00
2018-07-30T03:44:01.081Z,0.00
2018-07-30T03:45:01.010Z,0.00
2018-07-30T03:46:00.951Z,0.00
2018-07-30T03:47:00.886Z,0.00
2018-07-30T03:48:00.960Z,0.00
2018-07-30T03:49:00.759Z,0.00
2018-07-30T03:50:00.710Z,0.00
2018-07-30T03:51:00.655Z,0.00
2018-07-30T03:52:00.578Z,0.00
2018-07-30T03:53:00.511Z,0.00
2018-07-30T03:54:00.473Z,0.00
2018-07-30T03:55:00.391Z,0.00
2018-07-30T03:56:00.332Z,0.00
2018-07-30T03:57:00.271Z,0.00
2018-07-30T03:58:00.249Z,0.00
2018-07-30T03:59:00.134Z,0.00
2018-07-30T04:00:00.146Z,0.00
2018-07-30T04:01:00.024Z,0.00
2018-07-30T04:01:59.964Z,0.00
2018-07-30T04:02:59.904Z,0.00
2018-07-30T04:03:59.831Z,0.00
2018-07-30T04:04:59.772Z,0.00
2018-07-30T04:05:59.730Z,0.00
2018-07-30T04:06:59.637Z,0.00
2018-07-30T04:07:59.640Z,0.00
2018-07-30T04:08:59.509Z,0.00
2018-07-30T04:09:59.467Z,0.00
2018-07-30T04:10:59.390Z,0.00
2018-07-30T04:11:59.377Z,0.00
2018-07-30T04:12:59.278Z,0.00
2018-07-30T04:13:59.214Z,0.00
2018-07-30T04:14:59.154Z,0.00
2018-07-30T04:15:59.106Z,0.00
2018-07-30T04:16:59.013Z,0.00
2018-07-30T04:17:58.960Z,0.00
2018-07-30T04:18:58.901Z,0.00
2018-07-30T04:19:58.840Z,0.00
2018-07-30T04:20:58.772Z,0.00
2018-07-30T04:21:58.708Z,0.00
2018-07-30T04:22:58.648Z,0.00
2018-07-30T04:23:58.574Z,0.00
2018-07-30T04:24:58.530Z,0.00
2018-07-30T04:25:58.461Z,0.00
2018-07-30T04:26:58.424Z,0.00
2018-07-30T04:27:58.337Z,0.00
2018-07-30T04:28:58.275Z,0.00
2018-07-30T04:29:58.209Z,0.00
2018-07-30T04:30:58.146Z,0.00
2018-07-30T04:31:58.122Z,0.00
2018-07-30T04:32:58.022Z,0.00
2018-07-30T04:33:57.951Z,0.00
2018-07-30T04:34:57.905Z,0.00
2018-07-30T04:35:57.840Z,0.00
2018-07-30T04:36:57.762Z,0.00
2018-07-30T04:37:57.696Z,0.00
2018-07-30T04:38:57.653Z,0.00
2018-07-30T04:39:57.664Z,0.00
2018-07-30T04:40:57.522Z,0.00
2018-07-30T04:41:57.456Z,0.00
2018-07-30T04:42:57.396Z,0.00
2018-07-30T04:43:57.322Z,0.00
2018-07-30T04:44:57.273Z,0.00
2018-07-30T04:45:57.208Z,0.00
2018-07-30T04:46:57.164Z,0.00
2018-07-30T04:47:57.086Z,0.00
2018-07-30T04:48:57.021Z,0.00
2018-07-30T04:49:56.946Z,0.00
2018-07-30T04:50:56.900Z,0.00
2018-07-30T04:51:56.825Z,0.00
2018-07-30T04:52:56.765Z,0.00
2018-07-30T04:53:56.709Z,0.00
2018-07-30T04:54:56.641Z,0.00
2018-07-30T04:55:56.573Z,0.00
2018-07-30T04:56:56.562Z,0.00
2018-07-30T04:57:56.487Z,0.00
2018-07-30T04:58:56.398Z,0.00
2018-07-30T04:59:56.339Z,5.63
2018-07-30T05:00:56.273Z,5.63
2018-07-30T05:01:56.202Z,5.63
2018-07-30T05:02:56.147Z,5.63
2018-07-30T05:03:56.161Z,5.63
2018-07-30T05:04:56.008Z,5.63
2018-07-30T05:05:55.957Z,5.63
2018-07-30T05:06:55.888Z,5.63
2018-07-30T05:07:55.841Z,5.63
2018-07-30T05:08:55.759Z,5.63
2018-07-30T05:09:55.696Z,11.25
2018-07-30T05:10:55.648Z,11.25
2018-07-30T05:11:55.576Z,11.25
2018-07-30T05:12:55.517Z,11.25
2018-07-30T05:13:55.463Z,11.25
2018-07-30T05:14:55.400Z,11.25
2018-07-30T05:15:55.335Z,11.25
2018-07-30T05:16:55.265Z,16.88
2018-07-30T05:17:55.246Z,16.88
2018-07-30T05:18:55.140Z,16.88
2018-07-30T05:19:55.076Z,16.88
2018-07-30T05:20:55.027Z,16.88
2018-07-30T05:21:54.951Z,22.50
2018-07-30T05:22:54.899Z,22.50
2018-07-30T05:23:54.822Z,22.50
2018-07-30T05:24:54.795Z,22.50
2018-07-30T05:25:54.709Z,28.13
2018-07-30T05:26:54.653Z,28.13
2018-07-30T05:27:54.578Z,28.13
2018-07-30T05:28:54.519Z,28.13
2018-07-30T05:29:54.458Z,28.13
2018-07-30T05:30:54.392Z,33.75
2018-07-30T05:31:54.317Z,33.75
2018-07-30T05:32:54.278Z,39.38
2018-07-30T05:33:54.214Z,39.38
2018-07-30T05:34:54.149Z,39.38
2018-07-30T05:35:54.088Z,45.00
2018-07-30T05:36:54.026Z,45.00
2018-07-30T05:37:53.959Z,50.63
2018-07-30T05:38:53.887Z,50.63
2018-07-30T05:39:53.835Z,50.63
2018-07-30T05:40:53.770Z,50.63
2018-07-30T05:41:53.701Z,50.63
2018-07-30T05:42:53.728Z,50.63
2018-07-30T05:43:53.583Z,50.63
2018-07-30T05:44:53.508Z,56.25
2018-07-30T05:45:53.455Z,56.25
2018-07-30T05:46:53.393Z,61.88
2018-07-30T05:47:53.320Z,61.88
2018-07-30T05:48:53.273Z,61.88
2018-07-30T05:49:53.214Z,61.88
2018-07-30T05:50:53.139Z,67.50
2018-07-30T05:51:53.084Z,67.50
2018-07-30T05:52:53.013Z,73.13
2018-07-30T05:53:52.952Z,73.13
2018-07-30T05:54:52.903Z,73.13
2018-07-30T05:55:52.832Z,78.75
2018-07-30T05:56:52.767Z,78.75
2018-07-30T05:57:52.716Z,78.75
2018-07-30T05:58:52.648Z,84.38
2018-07-30T05:59:52.638Z,84.38
2018-07-30T06:00:52.518Z,84.38
2018-07-30T06:01:52.476Z,90.00
2018-07-30T06:02:52.390Z,90.00
2018-07-30T06:03:52.346Z,95.63
2018-07-30T06:04:52.276Z,95.63
2018-07-30T06:05:52.211Z,95.63
2018-07-30T06:06:52.149Z,95.63
2018-07-30T06:07:52.096Z,101.25
2018-07-30T06:08:52.023Z,101.25
2018-07-30T06:09:51.973Z,101.25
2018-07-30T06:10:51.904Z,106.88
2018-07-30T06:11:51.834Z,106.88
2018-07-30T06:12:51.802Z,106.88
2018-07-30T06:13:51.720Z,106.88
2018-07-30T06:14:51.651Z,106.88
2018-07-30T06:15:51.588Z,106.88
2018-07-30T06:16:51.533Z,112.50
2018-07-30T06:17:51.474Z,112.50
2018-07-30T06:18:51.402Z,112.50
2018-07-30T06:19:51.345Z,112.50
2018-07-30T06:20:51.286Z,118.13
2018-07-30T06:21:51.224Z,118.13
2018-07-30T06:22:51.156Z,118.13
2018-07-30T06:23:51.103Z,118.13
2018-07-30T06:24:51.027Z,123.75
2018-07-30T06:25:50.973Z,123.75
2018-07-30T06:26:50.909Z,123.75
2018-07-30T06:27:50.839Z,129.38
2018-07-30T06:28:50.794Z,129.38
2018-07-30T06:29:50.718Z,129.38
2018-07-30T06:30:50.657Z,129.38
2018-07-30T06:31:50.613Z,129.38
2018-07-30T06:32:50.548Z,135.00
2018-07-30T06:33:50.491Z,135.00
2018-07-30T06:34:50.417Z,135.00
2018-07-30T06:35:50.349Z,135.00
2018-07-30T06:36:50.311Z,140.63
2018-07-30T06:37:50.240Z,140.63
2018-07-30T06:38:50.180Z,140.63
2018-07-30T06:39:50.109Z,146.25
2018-07-30T06:40:50.045Z,146.25
2018-07-30T06:41:50.016Z,146.25
2018-07-30T06:42:49.917Z,146.25
2018-07-30T06:43:49.859Z,151.88
2018-07-30T06:44:49.809Z,151.88
2018-07-30T06:45:49.747Z,151.88
2018-07-30T06:46:49.682Z,151.88
2018-07-30T06:47:49.638Z,157.50
2018-07-30T06:48:49.547Z,157.50
2018-07-30T06:49:49.490Z,157.50
2018-07-30T06:50:49.427Z,157.50
2018-07-30T06:51:49.383Z,163.13
2018-07-30T06:52:49.307Z,163.13
2018-07-30T06:53:49.254Z,163.13
2018-07-30T06:54:49.195Z,168.75
2018-07-30T06:55:49.122Z,163.13
2018-07-30T06:56:49.093Z,168.75
2018-07-30T06:57:49.014Z,168.75
2018-07-30T06:58:48.953Z,168.75
2018-07-30T06:59:48.893Z,168.75
2018-07-30T07:00:48.824Z,168.75
2018-07-30T07:01:48.775Z,174.38
2018-07-30T07:02:48.697Z,174.38
2018-07-30T07:03:48.639Z,174.38
2018-07-30T07:04:48.603Z,174.38
2018-07-30T07:05:48.520Z,174.38
2018-07-30T07:06:48.462Z,174.38
2018-07-30T07:07:48.404Z,174.38
2018-07-30T07:08:48.328Z,174.38
2018-07-30T07:09:48.283Z,174.38
2018-07-30T07:10:48.261Z,174.38
2018-07-30T07:11:48.157Z,180.00
2018-07-30T07:12:48.089Z,180.00
2018-07-30T07:13:48.022Z,180.00
2018-07-30T07:14:48.850Z,185.63
2018-07-30T07:15:47.905Z,180.00
2018-07-30T07:16:47.887Z,180.00
2018-07-30T07:17:47.790Z,180.00
2018-07-30T07:18:47.721Z,180.00
2018-07-30T07:19:47.664Z,185.63
2018-07-30T07:20:47.744Z,185.63
2018-07-30T07:21:47.549Z,191.25
2018-07-30T07:22:47.476Z,191.25
2018-07-30T07:23:47.412Z,191.25
2018-07-30T07:24:47.363Z,191.25
2018-07-30T07:25:47.290Z,191.25
2018-07-30T07:26:47.232Z,191.25
2018-07-30T07:27:47.190Z,191.25
2018-07-30T07:28:47.109Z,191.25
2018-07-30T07:29:47.066Z,191.25
2018-07-30T07:30:47.004Z,196.88
2018-07-30T07:31:46.928Z,196.88
2018-07-30T07:32:46.870Z,196.88
2018-07-30T07:33:46.818Z,196.88
2018-07-30T07:34:46.750Z,196.88
2018-07-30T07:35:46.740Z,196.88
2018-07-30T07:36:46.639Z,196.88
2018-07-30T07:37:46.563Z,196.88
2018-07-30T07:38:46.502Z,196.88
2018-07-30T07:39:46.450Z,202.50
2018-07-30T07:40:46.390Z,202.50
2018-07-30T07:41:46.321Z,202.50
2018-07-30T07:42:46.266Z,202.50
2018-07-30T07:43:46.202Z,202.50
2018-07-30T07:44:46.147Z,202.50
2018-07-30T07:45:46.089Z,202.50
2018-07-30T07:46:46.024Z,202.50
2018-07-30T07:47:45.950Z,202.50
2018-07-30T07:48:45.891Z,202.50
2018-07-30T07:49:45.836Z,202.50
2018-07-30T07:50:45.999Z,208.13
2018-07-30T07:51:45.721Z,208.13
2018-07-30T07:52:45.660Z,202.50
2018-07-30T07:53:45.598Z,202.50
2018-07-30T07:54:45.538Z,208.13
2018-07-30T07:55:45.493Z,208.13
2018-07-30T07:56:45.425Z,208.13
2018-07-30T07:57:45.351Z,208.13
2018-07-30T07:58:45.288Z,208.13
2018-07-30T07:59:45.234Z,208.13
2018-07-30T08:00:45.173Z,208.13
2018-07-30T08:01:45.113Z,208.13
2018-07-30T08:02:45.083Z,208.13
2018-07-30T08:03:45.003Z,208.13
2018-07-30T08:04:44.955Z,208.13
2018-07-30T08:05:44.883Z,208.13
2018-07-30T08:06:44.816Z,213.75
2018-07-30T08:07:44.745Z,213.75
2018-07-30T08:08:44.713Z,213.75
2018-07-30T08:09:44.643Z,213.75
2018-07-30T08:10:44.583Z,213.75
2018-07-30T08:11:44.516Z,213.75
2018-07-30T08:12:44.454Z,213.75
2018-07-30T08:13:44.403Z,213.75
2018-07-30T08:14:44.344Z,213.75
2018-07-30T08:15:44.271Z,213.75
2018-07-30T08:16:44.221Z,213.75
2018-07-30T08:17:44.163Z,213.75
2018-07-30T08:18:44.106Z,213.75
2018-07-30T08:19:44.031Z,213.75
2018-07-30T08:20:43.987Z,213.75
2018-07-30T08:21:43.912Z,213.75
2018-07-30T08:22:43.872Z,213.75
2018-07-30T08:23:43.801Z,213.75
2018-07-30T08:24:43.744Z,213.75
2018-07-30T08:25:43.675Z,213.75
2018-07-30T08:26:43.624Z,213.75
2018-07-30T08:27:43.569Z,213.75
2018-07-30T08:28:43.507Z,213.75
2018-07-30T08:29:43.447Z,213.75
2018-07-30T08:30:43.381Z,213.75
2018-07-30T08:31:43.326Z,213.75
2018-07-30T08:32:43.276Z,213.75
2018-07-30T08:33:43.203Z,213.75
2018-07-30T08:34:43.155Z,213.75
2018-07-30T08:35:43.095Z,213.75
2018-07-30T08:36:43.037Z,213.75
2018-07-30T08:37:42.962Z,213.75
2018-07-30T08:38:42.916Z,213.75
2018-07-30T08:39:42.850Z,213.75
2018-07-30T08:40:42.791Z,213.75
2018-07-30T08:41:42.731Z,213.75
2018-07-30T08:42:42.664Z,213.75
2018-07-30T08:43:42.607Z,213.75
2018-07-30T08:44:42.564Z,213.75
2018-07-30T08:45:42.492Z,213.75
2018-07-30T08:46:42.440Z,213.75
2018-07-30T08:47:42.381Z,213.75
2018-07-30T08:48:42.334Z,213.75
2018-07-30T08:49:42.252Z,213.75
2018-07-30T08:50:42.204Z,213.75
2018-07-30T08:51:42.192Z,213.75
2018-07-30T08:52:42.077Z,213.75
2018-07-30T08:53:42.021Z,213.75
2018-07-30T08:54:41.978Z,213.75
2018-07-30T08:55:41.897Z,213.75
2018-07-30T08:56:41.837Z,213.75
2018-07-30T08:57:41.800Z,213.75
2018-07-30T08:58:41.723Z,213.75
2018-07-30T08:59:41.669Z,213.75
2018-07-30T09:00:41.610Z,213.75
2018-07-30T09:01:41.553Z,208.13
2018-07-30T09:02:41.483Z,213.75
2018-07-30T09:03:41.439Z,208.13
2018-07-30T09:04:41.373Z,208.13
2018-07-30T09:05:41.312Z,208.13
2018-07-30T09:06:41.242Z,208.13
2018-07-30T09:07:41.221Z,208.13
2018-07-30T09:08:41.123Z,208.13
2018-07-30T09:09:41.066Z,208.13
2018-07-30T09:10:41.016Z,208.13
2018-07-30T09:11:40.953Z,208.13
2018-07-30T09:12:40.992Z,208.13
2018-07-30T09:13:40.834Z,208.13
2018-07-30T09:14:40.787Z,208.13
2018-07-30T09:15:40.726Z,202.50
2018-07-30T09:16:40.654Z,202.50
2018-07-30T09:17:40.590Z,202.50
2018-07-30T09:18:40.546Z,202.50
2018-07-30T09:19:40.483Z,202.50
2018-07-30T09:20:40.426Z,202.50
2018-07-30T09:21:40.455Z,202.50
2018-07-30T09:22:40.309Z,202.50
2018-07-30T09:23:40.245Z,202.50
2018-07-30T09:24:40.184Z,202.50
2018-07-30T09:25:40.129Z,202.50
2018-07-30T09:26:40.063Z,202.50
2018-07-30T09:27:40.003Z,202.50
2018-07-30T09:28:39.946Z,202.50
2018-07-30T09:29:39.889Z,202.50
2018-07-30T09:30:39.849Z,202.50
2018-07-30T09:31:39.780Z,202.50
2018-07-30T09:32:39.769Z,202.50
2018-07-30T09:33:39.665Z,202.50
2018-07-30T09:34:39.628Z,202.50
2018-07-30T09:35:39.538Z,202.50
2018-07-30T09:36:39.487Z,202.50
2018-07-30T09:37:39.428Z,202.50
2018-07-30T09:38:39.368Z,196.88
2018-07-30T09:39:39.421Z,196.88
2018-07-30T09:40:39.248Z,196.88
2018-07-30T09:41:39.189Z,196.88
2018-07-30T09:42:39.134Z,196.88
2018-07-30T09:43:39.059Z,196.88
2018-07-30T09:44:39.141Z,208.13
2018-07-30T09:45:38.941Z,202.50
2018-07-30T09:46:38.893Z,196.88
2018-07-30T09:47:38.839Z,196.88
2018-07-30T09:48:38.832Z,196.88
2018-07-30T09:49:38.712Z,196.88
2018-07-30T09:50:38.682Z,196.88
2018-07-30T09:51:38.600Z,196.88
2018-07-30T09:52:38.555Z,196.88
2018-07-30T09:53:38.474Z,196.88
2018-07-30T09:54:38.425Z,196.88
2018-07-30T09:55:38.368Z,196.88
2018-07-30T09:56:38.305Z,196.88
2018-07-30T09:57:38.238Z,196.88
2018-07-30T09:58:38.191Z,196.88
2018-07-30T09:59:38.131Z,191.25
2018-07-30T10:00:38.082Z,191.25
2018-07-30T10:01:38.007Z,191.25
2018-07-30T10:02:37.955Z,191.25
2018-07-30T10:03:37.902Z,191.25
2018-07-30T10:04:37.830Z,191.25
2018-07-30T10:05:37.775Z,191.25
2018-07-30T10:06:37.727Z,191.25
2018-07-30T10:07:37.654Z,191.25
2018-07-30T10:08:37.602Z,191.25
2018-07-30T10:09:37.544Z,185.63
2018-07-30T10:10:37.480Z,185.63
2018-07-30T10:11:37.478Z,185.63
2018-07-30T10:12:37.362Z,185.63
2018-07-30T10:13:37.315Z,185.63
2018-07-30T10:14:37.260Z,185.63
2018-07-30T10:15:37.201Z,185.63
2018-07-30T10:16:37.131Z,185.63
2018-07-30T10:17:37.104Z,185.63
2018-07-30T10:18:37.031Z,185.63
2018-07-30T10:19:36.965Z,185.63
2018-07-30T10:20:36.898Z,180.00
2018-07-30T10:21:36.839Z,180.00
2018-07-30T10:22:36.793Z,180.00
2018-07-30T10:23:36.727Z,180.00
2018-07-30T10:24:36.669Z,180.00
2018-07-30T10:25:36.601Z,180.00
2018-07-30T10:26:36.551Z,180.00
2018-07-30T10:27:36.494Z,180.00
2018-07-30T10:28:36.432Z,180.00
2018-07-30T10:29:36.375Z,180.00
2018-07-30T10:30:36.362Z,180.00
2018-07-30T10:31:36.263Z,174.38
2018-07-30T10:32:36.200Z,174.38
2018-07-30T10:33:36.138Z,174.38
2018-07-30T10:34:36.135Z,174.38
2018-07-30T10:35:36.041Z,174.38
2018-07-30T10:36:35.958Z,174.38
2018-07-30T10:37:35.894Z,174.38
2018-07-30T10:38:35.842Z,174.38
2018-07-30T10:39:35.792Z,174.38
2018-07-30T10:40:35.718Z,174.38
2018-07-30T10:41:35.663Z,168.75
2018-07-30T10:42:35.620Z,168.75
2018-07-30T10:43:35.554Z,168.75
2018-07-30T10:44:35.498Z,168.75
2018-07-30T10:45:35.439Z,168.75
2018-07-30T10:46:35.379Z,168.75
2018-07-30T10:47:35.329Z,168.75
2018-07-30T10:48:35.250Z,168.75
2018-07-30T10:49:35.210Z,163.13
2018-07-30T10:50:35.141Z,163.13
2018-07-30T10:51:35.108Z,163.13
2018-07-30T10:52:35.033Z,163.13
2018-07-30T10:53:34.968Z,163.13
2018-07-30T10:54:34.919Z,163.13
2018-07-30T10:55:34.843Z,163.13
2018-07-30T10:56:34.837Z,163.13
2018-07-30T10:57:34.731Z,163.13
2018-07-30T10:58:34.669Z,157.50
2018-07-30T10:59:34.618Z,157.50
2018-07-30T11:00:34.556Z,157.50
2018-07-30T11:01:34.495Z,157.50
2018-07-30T11:02:34.437Z,157.50
2018-07-30T11:03:34.381Z,157.50
2018-07-30T11:04:34.329Z,157.50
2018-07-30T11:05:34.268Z,157.50
2018-07-30T11:06:34.239Z,157.50
2018-07-30T11:07:34.164Z,151.88
2018-07-30T11:08:34.098Z,151.88
2018-07-30T11:09:34.074Z,151.88
2018-07-30T11:10:33.973Z,151.88
2018-07-30T11:11:33.911Z,151.88
2018-07-30T11:12:33.853Z,151.88
2018-07-30T11:13:33.790Z,146.25
2018-07-30T11:14:33.741Z,146.25
2018-07-30T11:15:33.681Z,146.25
2018-07-30T11:16:33.625Z,146.25
2018-07-30T11:17:33.568Z,146.25
2018-07-30T11:18:33.494Z,146.25
2018-07-30T11:19:33.450Z,146.25
2018-07-30T11:20:33.380Z,146.25
2018-07-30T11:21:33.369Z,146.25
2018-07-30T11:22:33.276Z,146.25
2018-07-30T11:23:33.210Z,146.25
2018-07-30T11:24:33.160Z,146.25
2018-07-30T11:25:33.094Z,146.25
2018-07-30T11:26:33.027Z,146.25
2018-07-30T11:27:32.971Z,140.63
2018-07-30T11:28:32.928Z,140.63
2018-07-30T11:29:32.853Z,140.63
2018-07-30T11:30:32.793Z,140.63
2018-07-30T11:31:32.760Z,140.63
2018-07-30T11:32:32.701Z,140.63
2018-07-30T11:33:32.661Z,140.63
2018-07-30T11:34:32.562Z,140.63
2018-07-30T11:35:32.517Z,146.25
2018-07-30T11:36:32.439Z,140.63
2018-07-30T11:37:32.384Z,140.63
2018-07-30T11:38:32.333Z,140.63
2018-07-30T11:39:32.278Z,140.63
2018-07-30T11:40:32.213Z,140.63
2018-07-30T11:41:32.153Z,140.63
2018-07-30T11:42:32.096Z,140.63
2018-07-30T11:43:32.084Z,140.63
2018-07-30T11:44:31.979Z,146.25
2018-07-30T11:45:31.940Z,140.63
2018-07-30T11:46:31.862Z,140.63
2018-07-30T11:47:31.859Z,135.00
2018-07-30T11:48:31.825Z,135.00
2018-07-30T11:49:31.687Z,135.00
2018-07-30T11:50:31.641Z,135.00
2018-07-30T11:51:31.584Z,135.00
2018-07-30T11:52:31.512Z,135.00
2018-07-30T11:53:31.464Z,135.00
2018-07-30T11:54:31.474Z,129.38
2018-07-30T11:55:31.352Z,129.38
2018-07-30T11:56:31.298Z,129.38
2018-07-30T11:57:31.218Z,129.38
2018-07-30T11:58:31.164Z,129.38
2018-07-30T11:59:31.112Z,129.38
2018-07-30T12:00:31.061Z,135.00
2018-07-30T12:01:31.086Z,129.38
2018-07-30T12:02:30.976Z,129.38
2018-07-30T12:03:30.881Z,129.38
2018-07-30T12:04:30.822Z,129.38
2018-07-30T12:05:30.774Z,129.38
2018-07-30T12:06:30.717Z,129.38
2018-07-30T12:07:30.653Z,129.38
2018-07-30T12:08:30.582Z,123.75
2018-07-30T12:09:30.542Z,123.75
2018-07-30T12:10:30.480Z,129.38
2018-07-30T12:11:30.425Z,129.38
2018-07-30T12:12:30.355Z,129.38
2018-07-30T12:13:30.355Z,129.38
2018-07-30T12:14:30.240Z,129.38
2018-07-30T12:15:30.187Z,129.38
2018-07-30T12:16:30.150Z,123.75
2018-07-30T12:17:30.076Z,123.75
2018-07-30T12:18:30.006Z,123.75
2018-07-30T12:19:29.962Z,123.75
2018-07-30T12:20:29.888Z,123.75
2018-07-30T12:21:29.828Z,123.75
2018-07-30T12:22:29.777Z,123.75
2018-07-30T12:23:29.722Z,123.75
2018-07-30T12:24:29.665Z,123.75
2018-07-30T12:25:29.618Z,123.75
2018-07-30T12:26:29.579Z,123.75
2018-07-30T12:27:29.494Z,123.75
2018-07-30T12:28:29.426Z,123.75
2018-07-30T12:29:29.368Z,118.13
2018-07-30T12:30:29.460Z,118.13
2018-07-30T12:31:29.253Z,118.13
2018-07-30T12:32:29.204Z,118.13
2018-07-30T12:33:29.176Z,118.13
2018-07-30T12:34:29.081Z,118.13
2018-07-30T12:35:29.031Z,118.13
2018-07-30T12:36:28.976Z,118.13
2018-07-30T12:37:28.905Z,118.13
2018-07-30T12:38:28.884Z,118.13
2018-07-30T12:39:28.798Z,112.50
2018-07-30T12:40:28.757Z,112.50
2018-07-30T12:41:28.688Z,112.50
2018-07-30T12:42:28.630Z,112.50
2018-07-30T12:43:28.570Z,112.50
2018-07-30T12:44:28.508Z,112.50
2018-07-30T12:45:28.443Z,112.50
2018-07-30T12:46:28.382Z,112.50
2018-07-30T12:47:28.332Z,112.50
2018-07-30T12:48:28.279Z,112.50